Decoded Metar for KJST (JOHNSTOWN in PA, USA) (IATA:JST) | Meteo·Mobile Aviation Weather
aviador You're here:

KJST Decoded Metar

JOHNSTOWN in PA, USA
Report Time2018-09-23 19:54:00
UTC Time2018-09-23 20:29:07
Flight Rules mvfr MVFR
Wind150° at 06 kt
W.Decomp.*RWY 15: 5.9 kt HW 1.0 kt RCW
RWY 23: 2.1 kt HW 5.6 kt LCW
W.Rank150° ranks 11
Current wind is below 150° avg. (7.9)
Visibility9999 m
Phenomena:N/A
Clouds:Overcast 017 Hf
Expected CloudBase > 400 ft AGL from Temp-Dew spread
Ceiling1,700 ft
Temp13°C (ISA +3)
Dew Point12°C (94% RH)
AAT11.5°C
QNH1023 hPa
Density Alt2,434 ft
Elevation2,277 ft
Report Wrong Elevation
Raw Report
KJST 231954Z AUTO 15006KT 10SM OVC017 13/12 A3022 RMK AO2 SLP233
T01330117=

Extra information for KJST:More info

Metar Taf Metar & Taf Last 4 Metars F.Rules Stats Wind Profile Meteogram Temp Stats Airport Information Weather charts Add Link Nearby VenuesMetar ALERT Operation Metar Decoded Social comments

AIRNAV info for KJST